createdAt,value
2023-03-23T15:57:54.129Z,94.45
2023-03-23T16:00:24.792Z,94.25
2023-03-23T16:02:57.545Z,95.61
2023-03-23T16:05:29.252Z,95.76
2023-03-23T16:07:59.392Z,96.32
2023-03-23T16:10:29.666Z,95.72
2023-03-23T16:12:59.693Z,96.78
2023-03-23T16:15:29.327Z,95.22
2023-03-23T16:17:59.479Z,95.54
2023-03-23T16:20:33.502Z,95.36
2023-03-23T16:23:03.674Z,96.57
2023-03-23T16:25:33.531Z,96.64
2023-03-23T16:28:03.511Z,97.24
2023-03-23T16:30:35.009Z,95.99
2023-03-23T16:33:05.098Z,95.42
2023-03-23T16:35:37.808Z,96.48
2023-03-23T16:38:09.991Z,95.49
2023-03-23T16:40:39.876Z,95.92
2023-03-23T16:43:09.862Z,97.00
2023-03-23T16:45:42.421Z,96.91
2023-03-23T16:48:14.413Z,96.44
2023-03-23T16:50:45.957Z,97.54
2023-03-23T16:53:16.529Z,96.22
2023-03-23T16:55:49.909Z,96.49
2023-03-23T16:58:22.299Z,98.30
2023-03-23T17:00:54.368Z,100.00
2023-03-23T17:03:27.091Z,100.00
2023-03-23T17:06:09.089Z,100.00
2023-03-23T17:08:46.169Z,100.00
2023-03-23T17:11:18.400Z,100.00
2023-03-23T17:13:50.300Z,100.00
2023-03-23T17:16:21.761Z,100.00
2023-03-23T17:18:52.585Z,100.00
2023-03-23T17:21:26.115Z,100.00
2023-03-23T17:23:56.351Z,100.00
2023-03-23T17:26:26.444Z,100.00
2023-03-23T17:28:56.427Z,100.00
2023-03-23T17:31:28.472Z,100.00
2023-03-23T17:34:19.874Z,100.00
2023-03-23T17:36:51.620Z,100.00
2023-03-23T17:39:22.269Z,100.00
2023-03-23T17:41:54.675Z,100.00
2023-03-23T17:44:25.739Z,100.00
2023-03-23T17:46:56.780Z,100.00
2023-03-23T17:49:26.840Z,100.00
2023-03-23T17:51:58.922Z,100.00
2023-03-23T17:54:29.866Z,100.00
2023-03-23T17:57:04.274Z,100.00
2023-03-23T17:59:34.490Z,100.00
2023-03-23T18:02:04.142Z,100.00
2023-03-23T18:04:34.251Z,100.00
2023-03-23T18:07:05.669Z,100.00
2023-03-23T18:09:36.175Z,100.00
2023-03-23T18:12:06.055Z,100.00
2023-03-23T18:14:36.331Z,100.00
2023-03-23T18:17:06.136Z,100.00
2023-03-23T18:19:37.030Z,100.00
2023-03-23T18:22:08.313Z,100.00
2023-03-23T18:24:38.477Z,100.00
2023-03-23T18:27:08.839Z,100.00
2023-03-23T18:29:38.867Z,100.00
2023-03-23T18:32:08.908Z,100.00
2023-03-23T18:34:42.216Z,100.00
2023-03-23T18:37:13.541Z,100.00
2023-03-23T18:39:43.483Z,100.00
2023-03-23T18:42:13.272Z,100.00
2023-03-23T18:44:43.421Z,100.00
2023-03-23T18:47:13.204Z,100.00
2023-03-23T18:49:43.084Z,100.00
2023-03-23T18:52:14.677Z,100.00
2023-03-23T18:54:45.543Z,100.00
2023-03-23T18:57:15.703Z,100.00
2023-03-23T18:59:45.663Z,100.00
2023-03-23T19:02:18.548Z,100.00
2023-03-23T19:04:48.737Z,100.00
2023-03-23T19:07:20.185Z,100.00
2023-03-23T19:09:53.044Z,100.00
2023-03-23T19:12:23.493Z,100.00
2023-03-23T19:14:53.732Z,100.00
2023-03-23T19:17:25.388Z,100.00
2023-03-23T19:19:55.393Z,100.00
2023-03-23T19:22:26.539Z,100.00
2023-03-23T19:24:56.495Z,100.00
2023-03-23T19:27:26.394Z,100.00
2023-03-23T19:29:56.564Z,100.00
2023-03-23T19:32:26.443Z,100.00
2023-03-23T19:34:56.670Z,100.00
2023-03-23T19:37:28.057Z,100.00
2023-03-23T19:40:00.093Z,100.00
2023-03-23T19:42:29.960Z,100.00
2023-03-23T19:44:59.974Z,100.00
2023-03-23T19:47:29.892Z,100.00
2023-03-23T19:50:01.238Z,100.00
2023-03-23T19:52:32.388Z,100.00
2023-03-23T19:55:02.907Z,100.00
2023-03-23T19:57:32.832Z,100.00
2023-03-23T20:00:03.077Z,100.00
2023-03-23T20:02:34.283Z,100.00
2023-03-23T20:05:04.885Z,100.00
2023-03-23T20:07:40.799Z,100.00
2023-03-23T20:10:12.343Z,100.00
2023-03-23T20:12:42.473Z,100.00
2023-03-23T20:15:12.580Z,100.00
2023-03-23T20:17:42.514Z,100.00
2023-03-23T20:20:12.881Z,100.00
2023-03-23T20:22:44.110Z,100.00
2023-03-23T20:25:14.568Z,100.00
2023-03-23T20:27:45.009Z,100.00
2023-03-23T20:30:15.656Z,100.00
2023-03-23T20:32:46.754Z,100.00
2023-03-23T20:35:16.872Z,100.00
2023-03-23T20:37:50.854Z,100.00
2023-03-23T20:40:21.973Z,100.00
2023-03-23T20:42:54.591Z,100.00
2023-03-23T20:45:24.691Z,100.00
2023-03-23T20:47:54.940Z,100.00
2023-03-23T20:50:25.204Z,100.00
2023-03-23T20:52:57.689Z,100.00
2023-03-23T20:55:27.955Z,100.00
2023-03-23T20:57:59.648Z,100.00
2023-03-23T21:00:29.667Z,100.00
2023-03-23T21:02:59.335Z,100.00
2023-03-23T21:05:29.411Z,100.00
2023-03-23T21:08:00.512Z,100.00
2023-03-23T21:10:30.706Z,100.00
2023-03-23T21:13:00.426Z,100.00
2023-03-23T21:15:30.882Z,100.00
2023-03-23T21:18:00.524Z,100.00
2023-03-23T21:20:30.659Z,100.00
2023-03-23T21:23:03.012Z,100.00
2023-03-23T21:25:35.442Z,100.00
2023-03-23T21:28:06.968Z,100.00
2023-03-23T21:30:37.021Z,100.00
2023-03-23T21:33:08.374Z,100.00
2023-03-23T21:35:38.726Z,100.00
2023-03-23T21:38:14.491Z,100.00
2023-03-23T21:40:45.084Z,100.00
2023-03-23T21:43:16.749Z,100.00
2023-03-23T21:45:47.141Z,100.00
2023-03-23T21:48:16.939Z,100.00
2023-03-23T21:50:47.030Z,100.00
2023-03-23T21:53:18.781Z,100.00
2023-03-23T21:55:51.649Z,100.00
2023-03-23T21:58:22.205Z,100.00
2023-03-23T22:00:54.338Z,100.00
2023-03-23T22:03:24.769Z,100.00
2023-03-23T22:05:55.705Z,100.00
2023-03-23T22:08:28.054Z,100.00
2023-03-23T22:11:01.845Z,100.00
2023-03-23T22:13:32.901Z,100.00
2023-03-23T22:16:03.900Z,100.00
2023-03-23T22:18:35.001Z,100.00
2023-03-23T22:21:05.710Z,100.00
2023-03-23T22:23:37.179Z,100.00
2023-03-23T22:26:07.727Z,100.00
2023-03-23T22:28:38.575Z,100.00
2023-03-23T22:31:10.142Z,100.00
2023-03-23T22:33:40.373Z,100.00
2023-03-23T22:36:10.990Z,100.00
2023-03-23T22:38:43.679Z,100.00
2023-03-23T22:41:17.090Z,100.00
2023-03-23T22:43:46.978Z,100.00
2023-03-23T22:46:17.245Z,100.00
2023-03-23T22:48:47.300Z,100.00
2023-03-23T22:51:19.601Z,100.00
2023-03-23T22:53:51.330Z,100.00
2023-03-23T22:56:21.798Z,100.00
2023-03-23T22:58:51.539Z,100.00
2023-03-23T23:01:22.567Z,100.00
2023-03-23T23:03:52.415Z,100.00
2023-03-23T23:06:22.738Z,100.00
2023-03-23T23:08:53.948Z,100.00
2023-03-23T23:11:24.866Z,100.00
2023-03-23T23:13:54.495Z,100.00
2023-03-23T23:16:26.521Z,100.00
2023-03-23T23:18:56.748Z,100.00
2023-03-23T23:21:29.271Z,100.00
2023-03-23T23:24:00.541Z,100.00
2023-03-23T23:26:31.140Z,100.00
2023-03-23T23:29:01.437Z,100.00
2023-03-23T23:31:33.904Z,100.00
2023-03-23T23:34:04.045Z,100.00
2023-03-23T23:36:34.224Z,100.00
2023-03-23T23:39:06.076Z,100.00
2023-03-23T23:41:36.351Z,100.00
2023-03-23T23:44:06.461Z,100.00
2023-03-23T23:46:36.914Z,100.00
2023-03-23T23:49:07.309Z,100.00
2023-03-23T23:51:37.947Z,100.00
2023-03-23T23:54:09.152Z,100.00
2023-03-23T23:56:39.262Z,100.00
2023-03-23T23:59:09.141Z,100.00
